Time;durP1;ratioP1;P1;durP2;ratioP2;P2;SDS_P1;SDS_P2;PMS_P1;PMS_P2;Temp;Humidity;BMP_temperature;BMP_pressure;BME280_temperature;BME280_humidity;BME280_pressure;Samples;Min_cycle;Max_cycle;Signal;HPM_P1;HPM_P2
2024/03/07 00:00:17;;;;;;;87.88;40.38;;;4.70;99.90;;;-144.05;90.45;57006.00;5012407;28;20453;-80
2024/03/07 00:02:49;;;;;;;90.55;41.50;;;1.60;99.90;;;-144.05;90.48;56995.38;5012414;28;20037;-82
2024/03/07 00:05:18;;;;;;;92.25;40.97;;;4.70;99.90;;;-144.05;90.24;57065.47;5010755;28;20018;-82
2024/03/07 00:07:44;;;;;;;84.32;41.83;;;;;;;-144.05;90.37;57048.50;5012289;28;20101;-81
2024/03/07 00:10:11;;;;;;;94.30;41.22;;;;;;;-144.05;90.44;57046.38;5011927;28;20032;-82
2024/03/07 00:12:42;;;;;;;90.00;41.78;;;4.60;99.90;;;-144.05;90.40;57003.88;5011966;28;20076;-83
2024/03/07 00:15:14;;;;;;;90.35;40.58;;;4.60;99.90;;;-144.05;90.33;57027.25;5011830;28;20206;-80
2024/03/07 00:17:41;;;;;;;85.00;39.42;;;;;;;-144.05;90.24;57027.25;5011966;28;20026;-82
2024/03/07 00:20:09;;;;;;;86.40;40.13;;;;;;;-144.05;90.34;57029.38;5010379;28;20025;-81
2024/03/07 00:22:38;;;;;;;90.55;42.90;;;4.50;99.90;;;-144.05;90.31;57052.75;5012431;28;20022;-79
2024/03/07 00:25:05;;;;;;;89.28;42.55;;;4.50;99.90;;;-144.05;90.48;57029.38;5028482;28;20022;-83
2024/03/07 00:27:33;;;;;;;85.28;39.85;;;;;;;-144.05;90.32;57033.63;5010580;28;20022;-80
2024/03/07 00:30:08;;;;;;;86.38;41.45;;;4.50;99.90;;;-144.05;90.42;57029.38;5011662;28;20078;-81
2024/03/07 00:32:39;;;;;;;91.88;41.83;;;;;;;-144.05;90.47;57040.00;5008538;28;20052;-80
2024/03/07 00:35:08;;;;;;;91.90;41.97;;;4.30;99.90;;;-144.05;90.56;57014.50;5011829;28;20030;-82
2024/03/07 00:37:36;;;;;;;92.95;42.00;;;;;;;-144.05;90.79;57052.75;5011202;28;20040;-81
2024/03/07 00:40:03;;;;;;;99.80;42.75;;;;;;;-144.05;90.85;57044.25;5018691;28;20076;-79
2024/03/07 00:42:29;;;;;;;100.10;43.05;;;;;;;-144.05;90.79;56999.63;5019844;28;20042;-81
2024/03/07 00:44:56;;;;;;;94.65;41.67;;;;;;;-144.05;91.04;57044.25;5021535;28;20038;-81
2024/03/07 00:47:23;;;;;;;91.85;42.60;;;;;;;-144.05;91.14;57044.25;5021158;28;20022;-80
2024/03/07 00:49:49;;;;;;;93.90;43.83;;;;;;;-144.05;90.87;57003.88;5024515;28;20428;-81
2024/03/07 00:52:16;;;;;;;99.20;43.70;;;4.30;99.90;;;-144.05;91.06;57061.22;5010027;28;20022;-80
2024/03/07 00:54:42;;;;;;;90.60;44.28;;;;;;;-144.05;91.81;57054.88;5009765;28;20478;-80
2024/03/07 00:57:09;;;;;;;106.35;46.40;;;;;;;-144.05;91.88;57014.50;5012764;28;20517;-81
2024/03/07 00:59:35;;;;;;;96.07;44.60;;;;;;;-144.05;91.35;57029.38;5020509;28;20030;-81
2024/03/07 01:02:02;;;;;;;101.70;45.65;;;;;;;-144.05;91.61;57023.00;5011153;28;20014;-80
2024/03/07 01:04:31;;;;;;;96.55;43.05;;;;;;;-144.05;91.68;57027.25;5011194;28;20030;-85
2024/03/07 01:07:01;;;;;;;97.78;44.60;;;4.40;99.90;;;-144.05;91.73;57018.75;5009667;28;20060;-82
2024/03/07 01:09:30;;;;;;;99.43;43.13;;;4.30;99.90;;;-144.05;91.58;57052.75;5012599;28;20038;-82
2024/03/07 01:11:56;;;;;;;93.15;42.30;;;;;;;-144.05;91.27;57023.00;5013640;28;20041;-81
2024/03/07 01:14:23;;;;;;;93.50;44.00;;;0.70;99.90;;;-144.05;91.48;57044.25;5014878;28;20026;-80
2024/03/07 01:16:49;;;;;;;100.60;45.90;;;;;;;-144.05;91.98;57027.25;5014838;28;20068;-81
2024/03/07 01:19:15;;;;;;;104.18;46.42;;;;;;;-144.05;92.05;57014.50;5013531;28;20056;-81
2024/03/07 01:21:41;;;;;;;99.25;46.25;;;;;;;-144.05;91.55;57042.13;5013431;28;20021;-80
2024/03/07 01:24:08;;;;;;;94.85;42.83;;;;;;;-144.05;91.21;57031.50;5015012;28;20105;-82
2024/03/07 01:26:35;;;;;;;101.68;45.83;;;;;;;-144.05;91.07;57052.75;5015206;28;20391;-83
2024/03/07 01:29:01;;;;;;;97.38;43.58;;;;;;;-144.05;91.05;57040.00;5030756;28;20049;-82
2024/03/07 01:31:27;;;;;;;98.15;43.83;;;;;;;-144.05;90.97;57027.25;5015391;28;20490;-84
2024/03/07 01:33:54;;;;;;;97.60;44.28;;;4.20;99.90;;;-144.05;90.91;57035.75;5015190;28;20435;-79
2024/03/07 01:36:21;;;;;;;89.40;42.53;;;;;;;-144.05;91.03;57029.38;5013677;28;20025;-82
2024/03/07 01:38:47;;;;;;;91.80;42.58;;;;;;;-144.05;91.17;57046.38;5013613;28;20037;-80
2024/03/07 01:41:14;;;;;;;100.45;43.63;;;0.70;99.90;;;-144.05;91.37;57035.75;5013874;28;20133;-82
2024/03/07 01:43:41;;;;;;;94.05;43.20;;;;;;;-144.05;91.10;57050.63;5013709;28;20553;-81
2024/03/07 01:46:08;;;;;;;96.78;45.85;;;0.30;99.90;;;-144.05;91.44;57012.38;5014837;28;20030;-82
2024/03/07 01:48:35;;;;;;;104.78;44.00;;;;;;;-144.05;91.45;57048.50;5014353;28;20546;-80
2024/03/07 01:51:03;;;;;;;90.47;43.42;;;3.60;99.90;;;-144.05;91.17;57048.50;5013182;28;20419;-80
2024/03/07 01:53:32;;;;;;;99.40;42.75;;;4.00;99.90;;;-144.05;91.32;57031.50;5029585;28;20076;-82
2024/03/07 01:56:02;;;;;;;93.53;42.47;;;4.00;99.90;;;-144.05;91.58;57018.75;5014507;28;20052;-82
2024/03/07 01:58:31;;;;;;;91.43;41.95;;;;;;;-144.05;91.14;57044.25;5009015;28;20028;-82
2024/03/07 02:00:59;;;;;;;94.38;43.05;;;4.30;99.90;;;-144.05;91.21;57012.38;5012886;28;20032;-82
2024/03/07 02:03:26;;;;;;;88.65;40.80;;;;;;;-144.05;91.15;57040.00;5013877;28;20029;-79
2024/03/07 02:05:52;;;;;;;92.03;41.35;;;;;;;-144.05;91.12;57033.63;5012808;28;20029;-80
2024/03/07 02:08:19;;;;;;;88.00;41.00;;;3.80;99.90;;;-144.05;91.15;57016.63;5012318;28;20398;-80
2024/03/07 02:10:46;;;;;;;95.47;41.42;;;;;;;-144.05;91.28;57065.47;5012606;28;20026;-82
2024/03/07 02:13:12;;;;;;;99.00;42.45;;;;;;;-144.05;91.86;57035.75;5012383;28;20483;-79
2024/03/07 02:15:38;;;;;;;93.75;41.63;;;;;;;-144.05;91.93;57052.75;5014003;28;20033;-79
2024/03/07 02:18:05;;;;;;;89.88;42.08;;;;;;;-144.05;91.45;57048.50;5013474;28;20119;-80
2024/03/07 02:20:31;;;;;;;89.15;41.92;;;;;;;-144.05;91.74;57025.13;5028544;28;20411;-81
2024/03/07 02:22:57;;;;;;;96.80;43.15;;;;;;;-144.05;91.30;57054.88;5012189;28;20022;-80
2024/03/07 02:25:24;;;;;;;94.20;41.67;;;;;;;-144.05;91.40;56999.63;5013649;28;20025;-78
2024/03/07 02:27:50;;;;;;;87.03;40.10;;;;;;;-144.05;91.42;57033.63;5012575;28;20487;-82
2024/03/07 02:30:18;;;;;;;89.97;41.53;;;;;;;-144.05;91.51;57061.22;5014577;28;20109;-81
2024/03/07 02:32:51;;;;;;;91.13;41.33;;;;;;;-144.05;91.12;57061.22;5013323;28;20068;-84
2024/03/07 02:35:18;;;;;;;88.88;40.28;;;;;;;-144.05;91.21;57016.63;5014320;28;20022;-81
2024/03/07 02:37:46;;;;;;;89.95;41.28;;;;;;;-144.05;91.11;57071.84;5013226;28;20042;-83
2024/03/07 02:40:13;;;;;;;82.75;39.80;;;;;;;-144.05;91.17;57014.50;5014522;28;20025;-82
2024/03/07 02:42:39;;;;;;;85.22;40.85;;;;;;;-144.05;91.37;57031.50;5029935;28;20044;-80
2024/03/07 02:45:06;;;;;;;92.68;41.47;;;;;;;-144.05;91.57;57056.97;5012428;28;20521;-81
2024/03/07 02:47:33;;;;;;;85.30;40.47;;;;;;;-144.05;91.50;57080.34;5013169;28;20104;-80
2024/03/07 02:49:59;;;;;;;79.63;37.95;;;;;;;-144.05;91.30;57027.25;5013115;28;20029;-81
2024/03/07 02:52:25;;;;;;;92.07;40.60;;;;;;;-144.05;91.32;57048.50;5013017;28;20026;-82
2024/03/07 02:54:51;;;;;;;86.47;39.80;;;;;;;-144.05;91.49;57044.25;5011862;28;20113;-80
2024/03/07 02:57:17;;;;;;;85.30;39.53;;;;;;;-144.05;91.21;57050.63;5011731;28;20022;-82
2024/03/07 02:59:44;;;;;;;83.65;38.95;;;;;;;-144.05;91.15;57059.09;5012866;28;20602;-80
2024/03/07 03:02:10;;;;;;;91.70;40.65;;;;;;;-144.05;91.15;57025.13;5013314;28;20022;-81
2024/03/07 03:04:36;;;;;;;86.55;38.38;;;;;;;-144.05;91.32;57046.38;5013921;28;20038;-81
2024/03/07 03:07:02;;;;;;;99.97;41.67;;;;;;;-144.05;91.66;57054.88;5026348;28;20034;-78
2024/03/07 03:09:28;;;;;;;87.07;38.88;;;;;;;-144.05;91.42;57040.00;5037755;28;20025;-78
2024/03/07 03:11:55;;;;;;;93.13;41.05;;;;;;;-144.05;91.33;57052.75;5028858;28;20053;-82
2024/03/07 03:14:21;;;;;;;88.80;41.75;;;;;;;-144.05;91.21;57027.25;5013395;28;20046;-84
2024/03/07 03:16:47;;;;;;;84.30;40.40;;;;;;;-144.05;90.92;57063.34;5013039;28;20034;-84
2024/03/07 03:19:14;;;;;;;89.72;41.25;;;;;;;-144.05;90.87;57069.72;5013608;28;20030;-81
2024/03/07 03:21:42;;;;;;;87.70;40.20;;;;;;;-144.05;90.80;57056.97;5021256;28;20022;-81
2024/03/07 03:24:08;;;;;;;85.25;41.10;;;;;;;-144.05;91.05;57059.09;5015171;28;20114;-82
2024/03/07 03:26:35;;;;;;;83.97;40.00;;;;;;;-144.05;90.47;57052.75;5013445;28;20033;-82
2024/03/07 03:29:02;;;;;;;82.22;39.55;;;;;;;-144.05;90.61;57033.63;5013129;28;20034;-84
2024/03/07 03:31:28;;;;;;;84.25;37.28;;;;;;;-144.05;90.53;57054.88;5011426;28;20533;-82
2024/03/07 03:33:55;;;;;;;86.10;39.80;;;;;;;-144.05;90.29;57042.13;5011682;28;20029;-80
2024/03/07 03:36:21;;;;;;;76.07;36.20;;;;;;;-144.05;90.24;57031.50;5011726;28;20050;-79
2024/03/07 03:38:47;;;;;;;76.25;36.47;;;;;;;-144.05;89.96;57065.47;5012720;28;20041;-83
2024/03/07 03:41:17;;;;;;;80.10;35.45;;;;;;;-144.05;90.22;57018.75;5011655;28;20096;-80
2024/03/07 03:43:44;;;;;;;75.65;35.15;;;;;;;-144.05;89.96;57059.09;5011155;28;20018;-80
2024/03/07 03:46:11;;;;;;;76.03;36.63;;;3.10;99.90;;;-144.05;90.55;57073.97;5011245;28;20053;-81
2024/03/07 03:48:40;;;;;;;85.05;38.97;;;3.10;99.90;;;-144.05;90.37;57014.50;5011180;28;20210;-81
2024/03/07 03:51:08;;;;;;;79.55;36.28;;;3.00;99.90;;;-144.05;90.29;57078.22;5027700;28;21143;-83
2024/03/07 03:53:36;;;;;;;74.55;36.22;;;;;;;-144.05;89.92;57061.22;5012745;28;20083;-82
2024/03/07 03:56:06;;;;;;;78.68;36.70;;;;;;;-144.05;89.76;57033.63;5012108;28;20113;-81
2024/03/07 03:58:32;;;;;;;75.68;37.13;;;;;;;-144.05;89.53;57031.50;5011889;28;20101;-81
2024/03/07 04:00:58;;;;;;;77.53;36.30;;;;;;;-144.05;89.46;57042.13;5010377;28;20526;-80
2024/03/07 04:03:25;;;;;;;75.90;37.13;;;;;;;-144.05;89.49;57027.25;5010517;28;20037;-80
2024/03/07 04:05:51;;;;;;;82.32;38.42;;;;;;;-144.05;89.76;57040.00;5010460;28;20040;-82
2024/03/07 04:08:20;;;;;;;91.10;40.88;;;;;;;-144.05;89.70;57078.22;5011560;28;20030;-80
2024/03/07 04:10:46;;;;;;;83.40;41.72;;;;;;;-144.05;89.59;57078.22;5011932;28;20390;-80
2024/03/07 04:13:12;;;;;;;91.43;42.90;;;-0.70;99.90;;;-144.05;89.59;57069.72;5009893;28;20112;-80
2024/03/07 04:15:38;;;;;;;76.13;40.47;;;;;;;-144.05;89.72;57084.59;5012198;28;20483;-80
2024/03/07 04:18:05;;;;;;;85.47;42.53;;;;;;;-144.05;89.34;57071.84;5011644;28;20514;-80
2024/03/07 04:20:31;;;;;;;85.22;42.10;;;;;;;-144.05;89.34;57027.25;5010002;28;20079;-80
2024/03/07 04:22:57;;;;;;;81.85;41.30;;;-0.40;99.90;;;-144.05;89.61;57042.13;5010123;28;20408;-81
2024/03/07 04:25:24;;;;;;;84.05;40.65;;;;;;;-144.05;89.30;57078.22;5012720;28;20080;-80
2024/03/07 04:27:51;;;;;;;78.15;39.42;;;;;;;-144.05;89.68;57063.34;5011249;28;20048;-80
2024/03/07 04:30:17;;;;;;;78.38;39.80;;;;;;;-144.05;89.61;57052.75;5009830;28;20026;-80
2024/03/07 04:32:43;;;;;;;77.38;38.88;;;;;;;-144.05;89.35;57078.22;5011545;28;20080;-81
2024/03/07 04:35:10;;;;;;;73.50;36.45;;;;;;;-144.05;88.90;57076.09;5011058;28;20112;-80
2024/03/07 04:37:40;;;;;;;77.47;39.35;;;2.70;99.90;;;-144.05;89.14;57054.88;5011166;28;20478;-81
2024/03/07 04:40:15;;;;;;;76.07;38.80;;;2.70;99.90;;;-144.05;89.03;57054.88;5009547;28;20503;-81
2024/03/07 04:42:49;;;;;;;74.90;37.95;;;2.70;99.90;;;-144.05;88.70;57044.25;5011013;28;20491;-81
2024/03/07 04:45:16;;;;;;;73.60;37.22;;;2.70;99.90;;;-144.05;89.34;57052.75;5010994;28;20048;-82
2024/03/07 04:47:44;;;;;;;72.45;33.35;;;;;;;-144.05;88.56;57082.47;5011385;28;20037;-79
2024/03/07 04:50:12;;;;;;;72.68;35.65;;;;;;;-144.05;88.99;57052.75;5009606;28;20588;-80
2024/03/07 04:52:39;;;;;;;68.32;34.95;;;;;;;-144.05;88.68;57031.50;5009704;28;20088;-80
2024/03/07 04:55:12;;;;;;;63.20;33.35;;;2.80;99.90;;;-144.05;87.97;57035.75;5011008;28;20384;-81
2024/03/07 04:57:41;;;;;;;68.43;33.22;;;2.80;99.90;;;-144.05;87.88;57040.00;5011095;28;20025;-79
2024/03/07 05:00:18;;;;;;;70.63;33.47;;;2.70;99.90;;;-144.05;87.20;57031.50;5011125;28;20340;-80
2024/03/07 05:02:50;;;;;;;61.75;30.48;;;2.80;99.90;;;-144.05;87.53;57059.09;5011415;28;20471;-77
2024/03/07 05:05:22;;;;;;;64.57;33.45;;;;;;;-144.05;87.12;57046.38;5008777;28;20022;-82
2024/03/07 05:07:52;;;;;;;65.63;32.30;;;2.80;99.90;;;-144.05;87.20;57046.38;5010899;28;20049;-80
2024/03/07 05:10:18;;;;;;;63.53;32.08;;;;;;;-144.05;86.99;57029.38;5009886;28;20379;-80
2024/03/07 05:12:44;;;;;;;60.50;32.15;;;;;;;-144.05;87.20;57056.97;5009530;28;20109;-80
2024/03/07 05:15:11;;;;;;;64.30;31.55;;;;;;;-144.05;87.38;57031.50;5011169;28;20057;-81
2024/03/07 05:17:37;;;;;;;67.40;32.55;;;;;;;-144.05;87.09;57082.47;5026161;28;20092;-80
2024/03/07 05:20:12;;;;;;;62.60;32.05;;;;;;;-144.05;87.34;56986.91;5011349;28;20053;-80
2024/03/07 05:22:50;;;;;;;65.75;32.55;;;;;;;-144.05;87.37;57065.47;5010275;28;20026;-81
2024/03/07 05:25:18;;;;;;;64.15;32.50;;;;;;;-144.05;86.67;57061.22;5026175;28;20022;-80
2024/03/07 05:27:45;;;;;;;64.38;30.73;;;;;;;-144.05;86.84;57040.00;5010955;28;20472;-79
2024/03/07 05:30:13;;;;;;;64.20;31.63;;;;;;;-144.05;87.24;57052.75;5021678;28;20057;-79
2024/03/07 05:32:39;;;;;;;61.22;30.30;;;;;;;-144.05;87.28;57046.38;5031426;28;20042;-82
2024/03/07 05:35:07;;;;;;;61.97;30.30;;;3.20;99.90;;;-144.05;86.82;57048.50;5014415;28;20034;-80
2024/03/07 05:37:34;;;;;;;65.68;30.48;;;;;;;-144.05;86.77;57059.09;5011383;28;20026;-78
2024/03/07 05:40:02;;;;;;;57.47;30.73;;;;;;;-144.05;87.00;57086.72;5009200;28;20037;-78
2024/03/07 05:42:29;;;;;;;60.47;30.70;;;;;;;-144.05;87.33;57050.63;5004492;28;20403;-82
2024/03/07 05:44:56;;;;;;;58.58;29.25;;;;;;;-144.05;87.30;57080.34;5010936;28;20119;-79
2024/03/07 05:47:22;;;;;;;62.08;31.77;;;;;;;-144.05;87.28;57093.09;5010917;28;20108;-80
2024/03/07 05:49:48;;;;;;;63.72;31.85;;;;;;;-144.05;87.06;57031.50;5010502;28;20030;-78
2024/03/07 05:52:15;;;;;;;59.92;30.58;;;;;;;-144.05;86.75;57063.34;5009149;28;20018;-80
2024/03/07 05:54:41;;;;;;;58.78;30.58;;;;;;;-144.05;87.56;57065.47;5012181;28;20049;-78
2024/03/07 05:57:10;;;;;;;60.75;30.73;;;;;;;-144.05;87.49;57069.72;5029242;28;20026;-79
2024/03/07 05:59:36;;;;;;;66.72;31.60;;;;;;;-144.05;87.22;57084.59;5013287;28;20025;-79
2024/03/07 06:02:02;;;;;;;56.80;29.88;;;;;;;-144.05;86.97;57063.34;5022405;28;20034;-79
2024/03/07 06:04:29;;;;;;;60.22;30.52;;;;;;;-144.05;87.03;57084.59;5016426;28;20030;-81
2024/03/07 06:06:56;;;;;;;63.63;32.97;;;;;;;-144.05;86.95;57042.13;5012991;28;20026;-82
2024/03/07 06:09:22;;;;;;;61.78;30.83;;;;;;;-144.05;87.08;57052.75;5012712;28;20238;-81
2024/03/07 06:11:49;;;;;;;58.67;29.50;;;2.20;99.90;;;-144.05;86.61;57069.72;5012837;28;20451;-80
2024/03/07 06:14:16;;;;;;;62.58;30.77;;;-1.00;99.90;;;-144.05;86.63;57063.34;5014332;28;20064;-81
2024/03/07 06:16:42;;;;;;;65.55;30.77;;;2.30;99.90;;;-144.05;86.67;57061.22;5013807;28;20028;-81
2024/03/07 06:19:09;;;;;;;63.28;31.98;;;2.30;99.90;;;-144.05;86.69;57059.09;5014824;28;20026;-79
2024/03/07 06:21:41;;;;;;;62.75;32.33;;;1.80;99.90;;;-144.05;87.32;57073.97;5014743;28;20022;-80
2024/03/07 06:24:10;;;;;;;62.65;30.00;;;;;;;-144.05;87.12;57050.63;5017679;28;20033;-79
2024/03/07 06:29:16;;;;;;;65.10;31.90;;;-1.50;99.90;;;-144.05;85.09;57031.50;5015686;28;20033;-79
2024/03/07 06:31:43;;;;;;;62.75;32.20;;;-1.30;99.90;;;-144.05;84.32;57052.75;5014801;28;20265;-79
2024/03/07 06:34:09;;;;;;;64.47;31.85;;;;;;;-144.05;84.43;57040.00;5015431;28;20109;-81
2024/03/07 06:36:36;;;;;;;64.63;31.80;;;;;;;-144.05;84.07;57059.09;5016194;28;20018;-80
2024/03/07 06:39:05;;;;;;;60.03;30.88;;;2.40;99.90;;;-144.05;83.57;57067.59;5015676;28;20041;-81
2024/03/07 06:41:34;;;;;;;67.40;32.90;;;;;;;-144.05;85.28;57056.97;5016123;28;20495;-83
2024/03/07 06:44:01;;;;;;;64.32;33.15;;;;;;;-144.05;85.87;57050.63;5016033;28;20037;-83
2024/03/07 06:46:28;;;;;;;64.35;32.15;;;;;;;-144.05;85.75;57061.22;5008527;28;20030;-83
2024/03/07 06:48:58;;;;;;;57.10;29.90;;;;;;;-144.05;85.56;57069.72;5015412;28;20384;-81
2024/03/07 06:51:24;;;;;;;60.75;30.77;;;;;;;-144.05;85.38;57059.09;5014520;28;20022;-83
2024/03/07 06:53:51;;;;;;;57.58;28.98;;;;;;;-144.05;83.36;57086.72;5014929;28;20030;-82
2024/03/07 06:56:17;;;;;;;61.38;30.85;;;;;;;-144.05;83.56;57065.47;5031072;28;20579;-82
2024/03/07 06:58:48;;;;;;;62.58;29.80;;;;;;;-144.05;83.27;57031.50;5015288;28;20026;-84
2024/03/07 07:01:18;;;;;;;58.92;29.52;;;;;;;-144.05;82.45;57084.59;5015701;28;20045;-83
2024/03/07 07:03:45;;;;;;;53.30;28.73;;;;;;;-144.05;82.05;57033.63;5018440;28;20014;-84
2024/03/07 07:06:12;;;;;;;65.18;30.88;;;;;;;-144.05;83.07;57063.34;5016852;28;20518;-82
2024/03/07 07:08:38;;;;;;;56.95;29.52;;;;;;;-144.05;82.04;57054.88;5019949;28;20021;-81
2024/03/07 07:11:05;;;;;;;55.42;29.00;;;;;;;-144.05;80.89;57035.75;5032565;28;20081;-78
2024/03/07 07:13:31;;;;;;;53.78;28.83;;;-0.80;99.90;;;-144.05;80.00;57044.25;5033240;28;20034;-81
2024/03/07 07:15:58;;;;;;;55.70;28.92;;;;;;;-144.05;78.93;57044.25;5035203;28;20079;-80
2024/03/07 07:18:24;;;;;;;50.33;27.23;;;;;;;-144.05;78.45;57031.50;5022501;28;20029;-79
2024/03/07 07:20:54;;;;;;;50.63;27.58;;;;;;;-144.05;77.62;57050.63;5017852;28;20082;-77
2024/03/07 07:23:20;;;;;;;55.28;29.42;;;;;;;-144.05;77.11;57014.50;5018946;28;20032;-79
2024/03/07 07:25:47;;;;;;;52.55;28.13;;;;;;;-144.05;77.08;57018.75;5018800;28;20101;-80
2024/03/07 07:28:15;;;;;;;50.28;26.45;;;;;;;-144.05;76.51;57023.00;5015101;28;20026;-81
2024/03/07 07:30:42;;;;;;;51.80;25.38;;;;;;;-144.05;76.38;57052.75;5016246;28;20026;-81
2024/03/07 07:33:08;;;;;;;52.90;26.90;;;;;;;-144.05;76.44;57025.13;5016066;28;20030;-81
2024/03/07 07:35:34;;;;;;;48.60;28.00;;;;;;;-144.05;75.42;57035.75;5017154;28;20022;-79
2024/03/07 07:38:01;;;;;;;50.50;27.70;;;0.80;99.90;;;-144.05;75.00;57006.00;5016522;28;20034;-81
2024/03/07 07:40:28;;;;;;;50.92;26.45;;;;;;;-144.05;74.17;56969.91;5008017;28;20025;-80
2024/03/07 07:42:54;;;;;;;51.60;27.83;;;4.50;99.90;;;-144.05;73.62;57012.38;5016154;28;20085;-80
2024/03/07 07:45:22;;;;;;;47.25;25.70;;;4.30;99.90;;;-144.05;73.58;57048.50;5017324;28;20022;-82
2024/03/07 07:47:52;;;;;;;43.47;25.63;;;4.30;99.90;;;-144.05;73.64;57050.63;5015850;28;20452;-81
2024/03/07 07:50:22;;;;;;;49.22;25.48;;;1.10;99.90;;;-144.05;74.07;57023.00;5015788;28;20018;-81
2024/03/07 07:52:58;;;;;;;48.22;26.55;;;4.20;99.90;;;-144.05;74.19;57020.88;5016307;28;20056;-80
2024/03/07 07:55:28;;;;;;;47.42;26.60;;;4.20;99.90;;;-144.05;74.44;57029.38;5017131;28;20017;-81
2024/03/07 07:57:59;;;;;;;46.97;25.45;;;4.30;99.90;;;-144.05;74.46;57006.00;5017327;28;20040;-79
2024/03/07 08:00:28;;;;;;;49.38;26.73;;;4.40;99.90;;;-144.05;74.44;57046.38;5032183;28;20025;-80
2024/03/07 08:03:09;;;;;;;48.00;25.95;;;4.50;99.90;;;-144.05;73.81;57001.75;5017727;28;20026;-79
2024/03/07 08:05:37;;;;;;;48.47;25.25;;;4.40;99.90;;;-144.05;73.69;57027.25;5010775;28;20026;-80
2024/03/07 08:08:07;;;;;;;59.10;28.27;;;4.70;99.90;;;-144.05;73.72;57031.50;5016358;28;20037;-81
2024/03/07 08:10:37;;;;;;;45.95;26.80;;;4.20;99.90;;;-144.05;73.02;57016.63;5014768;28;20045;-81
2024/03/07 08:13:12;;;;;;;50.65;27.90;;;4.10;99.90;;;-144.05;74.36;57006.00;5015750;28;20511;-80
2024/03/07 08:15:40;;;;;;;48.40;25.52;;;;;;;-144.05;74.84;56997.50;5015773;28;20041;-82
2024/03/07 08:18:08;;;;;;;47.45;27.08;;;;;;;-144.05;76.41;57046.38;5019502;28;20064;-82
2024/03/07 08:20:35;;;;;;;52.70;27.50;;;3.90;99.90;;;-144.05;75.96;57063.34;5023616;28;20089;-81
2024/03/07 08:23:01;;;;;;;50.75;26.30;;;3.70;99.90;;;-144.05;76.20;57056.97;5033490;28;20280;-80
2024/03/07 08:25:29;;;;;;;42.13;25.10;;;;;;;-144.05;76.42;57065.47;5024157;28;20480;-81
2024/03/07 08:27:57;;;;;;;48.20;26.33;;;3.80;99.90;;;-144.05;75.46;57020.88;5019349;28;20308;-82
2024/03/07 08:30:25;;;;;;;47.72;25.83;;;;;;;-144.05;75.30;57029.38;5018565;28;20026;-79
2024/03/07 08:32:54;;;;;;;46.90;25.52;;;3.80;99.90;;;-144.05;74.96;57031.50;5016422;28;20036;-82
2024/03/07 08:35:21;;;;;;;52.30;26.02;;;0.40;99.90;;;-144.05;74.64;57023.00;5016781;28;20030;-80
2024/03/07 08:37:54;;;;;;;51.15;25.02;;;4.30;99.90;;;-144.05;74.29;57016.63;5032005;28;20380;-80
2024/03/07 08:40:32;;;;;;;43.35;24.17;;;4.10;99.90;;;-144.05;74.51;57059.09;5016180;28;20519;-79
2024/03/07 08:42:59;;;;;;;53.47;25.05;;;4.20;99.90;;;-144.05;75.52;57035.75;5016467;28;20037;-81
2024/03/07 08:45:27;;;;;;;43.92;24.27;;;4.30;99.90;;;-144.05;76.27;57063.34;5015494;28;20033;-80
2024/03/07 08:47:57;;;;;;;42.05;24.60;;;4.20;99.90;;;-144.05;75.69;57046.38;5015919;28;20037;-79
2024/03/07 08:50:26;;;;;;;40.47;23.40;;;4.30;99.90;;;-144.05;73.70;57014.50;5015877;28;20072;-78
2024/03/07 08:52:52;;;;;;;44.10;23.48;;;;;;;-144.05;72.77;57020.88;5033696;28;20030;-80
2024/03/07 08:55:25;;;;;;;39.38;22.17;;;4.50;99.90;;;-144.05;73.98;57044.25;5017451;28;20052;-80
2024/03/07 08:57:51;;;;;;;41.08;24.48;;;;;;;-144.05;72.89;57044.25;5015450;28;20444;-80
2024/03/07 09:00:23;;;;;;;42.28;22.58;;;4.70;99.90;;;-144.05;72.94;57023.00;5017453;28;20095;-81
2024/03/07 09:02:58;;;;;;;40.45;23.13;;;4.50;99.90;;;-144.05;72.27;57003.88;5018479;28;20022;-80
2024/03/07 09:05:26;;;;;;;40.78;22.45;;;;;;;-144.05;71.69;57035.75;5017048;28;20026;-81
2024/03/07 09:07:54;;;;;;;41.85;22.95;;;4.80;99.90;;;-144.05;71.58;57025.13;5031351;28;20034;-79
2024/03/07 09:10:21;;;;;;;42.35;23.95;;;;;;;-144.05;70.77;57023.00;5016119;28;20026;-80
2024/03/07 09:12:52;;;;;;;44.17;22.45;;;5.20;99.90;;;-144.05;70.42;57014.50;5016558;28;20030;-81
2024/03/07 09:15:19;;;;;;;40.78;21.92;;;;;;;-144.05;70.45;57003.88;5025301;28;20021;-83
2024/03/07 09:17:47;;;;;;;36.15;22.05;;;2.20;99.90;;;-144.05;69.71;57035.75;5015153;28;20036;-80
2024/03/07 09:20:15;;;;;;;36.83;21.70;;;6.70;99.90;;;-144.05;68.77;57018.75;5014542;28;20034;-82
2024/03/07 09:22:48;;;;;;;37.60;21.17;;;5.60;99.90;;;-144.05;68.69;56995.38;5015843;28;20037;-81
2024/03/07 09:25:16;;;;;;;36.55;20.55;;;;;;;-144.05;67.78;56989.00;5016577;28;20427;-79
2024/03/07 09:27:42;;;;;;;39.03;20.67;;;;;;;-144.05;68.01;57010.25;5013321;28;20079;-81
2024/03/07 09:30:14;;;;;;;37.45;22.13;;;5.40;99.90;;;-144.05;68.03;57027.25;5014590;28;20534;-81
2024/03/07 09:32:41;;;;;;;36.45;20.27;;;;;;;-144.05;66.90;57006.00;5019123;28;20053;-80
2024/03/07 09:35:13;;;;;;;37.72;21.58;;;6.00;99.90;;;-144.05;66.56;56961.41;5018800;28;20074;-82
2024/03/07 09:37:44;;;;;;;34.30;19.83;;;5.90;99.90;;;-144.05;66.04;57006.00;5018416;28;20108;-80
2024/03/07 09:40:14;;;;;;;35.97;20.70;;;5.90;99.90;;;-144.05;66.12;56993.25;5018730;28;20041;-79
2024/03/07 09:42:52;;;;;;;34.35;19.30;;;6.40;99.90;;;-144.05;66.83;56997.50;5020108;28;20429;-79
2024/03/07 09:45:22;;;;;;;36.05;20.67;;;5.90;99.90;;;-144.05;67.66;56984.78;5019172;28;20117;-79
2024/03/07 09:47:51;;;;;;;37.30;20.50;;;3.90;99.90;;;-144.05;68.04;57027.25;5019618;28;20391;-81
2024/03/07 09:50:21;;;;;;;34.28;19.67;;;6.40;99.90;;;-144.05;68.26;57035.75;5019523;28;20032;-82
2024/03/07 09:52:49;;;;;;;33.10;20.23;;;6.40;99.90;;;-144.05;68.40;57003.88;5019503;28;20033;-81
2024/03/07 09:55:23;;;;;;;34.80;21.02;;;6.70;99.90;;;-144.05;67.39;56967.78;5018108;28;20526;-78
2024/03/07 09:57:50;;;;;;;32.20;19.65;;;;;;;-144.05;67.18;57014.50;5019207;28;20437;-79
2024/03/07 10:00:26;;;;;;;32.00;19.45;;;4.10;99.90;;;-144.05;68.12;57010.25;5019914;28;20034;-82
2024/03/07 10:03:04;;;;;;;40.25;20.63;;;4.00;99.90;;;-144.05;68.42;57025.13;5019771;28;20041;-82
2024/03/07 10:05:32;;;;;;;30.63;17.92;;;6.50;99.90;;;-144.05;66.02;57027.25;5011861;28;20534;-81
2024/03/07 10:07:59;;;;;;;35.92;19.52;;;4.10;99.90;;;-144.05;66.71;57001.75;5020313;28;20026;-80
2024/03/07 10:10:25;;;;;;;31.48;19.40;;;;;;;-144.05;66.66;57003.88;5020031;28;20082;-79
2024/03/07 10:12:57;;;;;;;32.13;18.73;;;6.60;99.90;;;-144.05;65.80;56995.38;5018764;28;20018;-79
2024/03/07 10:15:32;;;;;;;32.22;18.70;;;4.00;99.90;;;-144.05;65.12;57008.13;5019561;28;20026;-79
2024/03/07 10:18:00;;;;;;;;;;;7.00;99.90;;;-144.05;65.67;57014.50;5020122;28;20026;-82
2024/03/07 10:20:26;;;;;;;31.80;18.00;;;;;;;-144.05;65.99;57008.13;5019510;28;20440;-79
2024/03/07 10:22:53;;;;;;;35.45;20.13;;;;;;;-144.05;65.97;57023.00;5021065;28;20493;-79
2024/03/07 10:25:25;;;;;;;31.52;18.88;;;6.00;99.90;;;-144.05;65.59;56991.13;5034914;28;20052;-81
2024/03/07 10:27:52;;;;;;;31.52;18.77;;;;;;;-144.05;65.67;56982.66;5022287;28;20108;-78
2024/03/07 10:30:21;;;;;;;30.80;18.77;;;6.10;99.90;;;-144.05;65.28;56997.50;5020409;28;20084;-79
2024/03/07 10:32:53;;;;;;;27.35;17.35;;;6.80;99.90;;;-144.05;65.15;57014.50;5020181;28;20101;-80
2024/03/07 10:35:26;;;;;;;33.28;18.95;;;7.10;99.90;;;-144.05;64.78;56997.50;5021375;28;20396;-82
2024/03/07 10:38:00;;;;;;;33.83;19.38;;;7.10;99.90;;;-144.05;65.28;57001.75;5019300;28;20026;-78
2024/03/07 10:40:27;;;;;;;33.97;19.42;;;;;;;-144.05;64.79;56993.25;5020163;28;20430;-79